createdAt,value
2019-05-23T00:01:15.896Z,15.60
2019-05-23T00:03:49.052Z,15.60
2019-05-23T00:06:17.921Z,15.60
2019-05-23T00:08:46.801Z,15.60
2019-05-23T00:11:32.239Z,15.50
2019-05-23T00:14:04.689Z,15.70
2019-05-23T00:16:33.047Z,15.50
2019-05-23T00:19:01.103Z,15.60
2019-05-23T00:21:30.123Z,15.60
2019-05-23T00:23:57.954Z,15.60
2019-05-23T00:26:26.071Z,15.50
2019-05-23T00:29:09.022Z,15.50
2019-05-23T00:34:18.128Z,15.50
2019-05-23T00:36:46.242Z,15.40
2019-05-23T00:39:34.364Z,15.30
2019-05-23T00:42:01.524Z,15.40
2019-05-23T00:44:48.377Z,15.40
2019-05-23T00:47:18.352Z,15.10
2019-05-23T00:50:06.476Z,15.40
2019-05-23T00:52:33.651Z,15.10
2019-05-23T00:55:01.541Z,15.30
2019-05-23T00:57:28.583Z,15.30
2019-05-23T00:59:57.193Z,15.30
2019-05-23T01:02:25.303Z,15.30
2019-05-23T01:05:12.535Z,15.30
2019-05-23T01:07:40.490Z,15.10
2019-05-23T01:10:09.263Z,15.20
2019-05-23T01:12:36.853Z,15.20
2019-05-23T01:15:25.622Z,15.10
2019-05-23T01:18:12.669Z,14.80
2019-05-23T01:20:59.427Z,15.30
2019-05-23T01:23:52.843Z,15.20
2019-05-23T01:26:20.795Z,14.70
2019-05-23T01:28:48.626Z,15.20
2019-05-23T01:31:19.657Z,15.80
2019-05-23T01:33:48.134Z,15.10
2019-05-23T01:36:15.848Z,15.20
2019-05-23T01:38:43.352Z,15.20
2019-05-23T01:41:12.191Z,15.20
2019-05-23T01:43:39.192Z,15.20
2019-05-23T01:46:06.648Z,15.20
2019-05-23T01:48:34.185Z,15.10
2019-05-23T01:51:01.693Z,15.20
2019-05-23T01:53:48.749Z,15.10
2019-05-23T01:56:16.158Z,14.90
2019-05-23T01:58:43.666Z,15.00
2019-05-23T02:01:12.131Z,15.00
2019-05-23T02:03:40.644Z,15.00
2019-05-23T02:06:08.129Z,15.10
2019-05-23T02:08:36.004Z,15.00
2019-05-23T02:11:03.597Z,15.00
2019-05-23T02:13:30.980Z,15.00
2019-05-23T02:15:58.554Z,15.00
2019-05-23T02:18:25.554Z,15.00
2019-05-23T02:20:53.248Z,14.90
2019-05-23T02:23:20.902Z,14.90
2019-05-23T02:25:48.811Z,15.00
2019-05-23T02:28:17.294Z,14.80
2019-05-23T02:30:44.345Z,14.80
2019-05-23T02:33:11.756Z,14.80
2019-05-23T02:35:39.862Z,14.70
2019-05-23T02:38:18.184Z,14.70
2019-05-23T02:41:08.269Z,14.70
2019-05-23T02:43:35.958Z,14.60
2019-05-23T02:46:06.752Z,14.60
2019-05-23T02:48:37.821Z,14.50
2019-05-23T02:51:08.142Z,14.50
2019-05-23T02:53:36.643Z,14.50
2019-05-23T02:56:07.412Z,14.50
2019-05-23T02:58:39.969Z,14.40
2019-05-23T03:01:41.628Z,14.50
2019-05-23T03:04:10.307Z,14.40
2019-05-23T03:06:38.945Z,14.30
2019-05-23T03:09:07.178Z,14.30
2019-05-23T03:11:56.413Z,14.30
2019-05-23T03:14:25.506Z,14.10
2019-05-23T03:16:53.634Z,14.20
2019-05-23T03:19:36.391Z,14.10
2019-05-23T03:22:30.237Z,14.10
2019-05-23T03:25:00.201Z,14.10
2019-05-23T03:27:29.021Z,14.00
2019-05-23T03:29:56.896Z,14.00
2019-05-23T03:32:49.391Z,14.00
2019-05-23T03:35:22.682Z,14.10
2019-05-23T03:37:51.166Z,14.00
2019-05-23T03:40:18.181Z,14.00
2019-05-23T03:42:45.598Z,14.00
2019-05-23T03:45:39.563Z,14.00
2019-05-23T03:48:05.305Z,13.10
2019-05-23T03:50:33.562Z,13.90
2019-05-23T03:53:21.089Z,14.00
2019-05-23T03:55:51.995Z,13.70
2019-05-23T03:58:20.816Z,13.70
2019-05-23T04:01:09.724Z,14.00
2019-05-23T04:03:39.874Z,13.60
2019-05-23T04:06:26.481Z,13.90
2019-05-23T04:08:53.601Z,13.90
2019-05-23T04:11:20.899Z,14.00
2019-05-23T04:13:47.925Z,14.00
2019-05-23T04:16:15.453Z,14.10
2019-05-23T04:18:42.600Z,14.10
2019-05-23T04:21:09.815Z,14.10
2019-05-23T04:23:56.878Z,14.10
2019-05-23T04:27:00.115Z,13.90
2019-05-23T04:29:52.779Z,14.10
2019-05-23T04:32:21.021Z,14.20
2019-05-23T04:35:08.740Z,14.10
2019-05-23T04:37:49.220Z,14.10
2019-05-23T04:40:17.918Z,13.90
2019-05-23T04:42:45.610Z,15.20
2019-05-23T04:45:12.649Z,13.50
2019-05-23T04:47:40.001Z,14.30
2019-05-23T04:50:28.108Z,14.30
2019-05-23T04:53:15.476Z,14.00
2019-05-23T04:55:43.077Z,14.10
2019-05-23T04:58:11.646Z,14.40
2019-05-23T05:00:39.688Z,14.40
2019-05-23T05:03:06.740Z,14.40
2019-05-23T05:05:34.379Z,14.30
2019-05-23T05:08:02.091Z,14.50
2019-05-23T05:10:30.208Z,14.40
2019-05-23T05:12:59.407Z,14.50
2019-05-23T05:15:26.970Z,14.60
2019-05-23T05:17:54.098Z,14.60
2019-05-23T05:20:23.957Z,14.60
2019-05-23T05:22:52.262Z,14.80
2019-05-23T05:25:20.109Z,14.70
2019-05-23T05:27:47.446Z,14.70
2019-05-23T05:30:15.324Z,14.70
2019-05-23T05:32:45.237Z,14.80
2019-05-23T05:35:13.168Z,14.80
2019-05-23T05:37:40.973Z,14.80
2019-05-23T05:40:09.075Z,14.90
2019-05-23T05:42:37.704Z,14.90
2019-05-23T05:45:24.914Z,15.00
2019-05-23T05:47:52.864Z,15.10
2019-05-23T05:50:20.280Z,15.00
2019-05-23T05:52:50.052Z,15.00
2019-05-23T05:55:17.579Z,15.10
2019-05-23T05:57:45.043Z,15.20
2019-05-23T06:00:32.432Z,15.20
2019-05-23T06:03:05.080Z,15.20
2019-05-23T06:05:43.869Z,15.30
2019-05-23T06:08:12.099Z,15.40
2019-05-23T06:10:59.466Z,15.50
2019-05-23T06:13:27.256Z,15.50
2019-05-23T06:16:14.213Z,15.50
2019-05-23T06:18:42.514Z,14.90
2019-05-23T06:21:30.034Z,15.60
2019-05-23T06:23:57.628Z,15.90
2019-05-23T06:26:25.007Z,15.60
2019-05-23T06:28:53.018Z,15.70
2019-05-23T06:31:24.063Z,15.80
2019-05-23T06:33:52.127Z,15.80
2019-05-23T06:36:19.068Z,15.90
2019-05-23T06:39:08.739Z,15.90
2019-05-23T06:41:36.067Z,16.00
2019-05-23T06:44:03.569Z,16.00
2019-05-23T06:46:31.456Z,16.10
2019-05-23T06:48:58.388Z,16.10
2019-05-23T06:51:25.889Z,16.20
2019-05-23T06:53:53.574Z,16.20
2019-05-23T06:56:20.723Z,16.20
2019-05-23T06:58:47.609Z,16.20
2019-05-23T07:01:15.024Z,16.30
2019-05-23T07:04:02.262Z,16.30
2019-05-23T07:06:29.701Z,16.20
2019-05-23T07:08:57.090Z,16.00
2019-05-23T07:11:43.972Z,16.50
2019-05-23T07:14:11.725Z,16.60
2019-05-23T07:16:39.173Z,17.50
2019-05-23T07:19:06.408Z,16.70
2019-05-23T07:21:34.381Z,16.60
2019-05-23T07:24:01.268Z,16.80
2019-05-23T07:26:29.007Z,16.90
2019-05-23T07:28:56.620Z,16.80
2019-05-23T07:31:23.632Z,16.90
2019-05-23T07:34:01.102Z,17.00
2019-05-23T07:36:19.937Z,17.00
2019-05-23T07:38:46.856Z,17.10
2019-05-23T07:41:14.227Z,17.10
2019-05-23T07:43:42.215Z,17.10
2019-05-23T07:46:09.554Z,17.20
2019-05-23T07:48:36.861Z,17.20
2019-05-23T07:51:04.557Z,17.30
2019-05-23T07:53:51.237Z,17.30
2019-05-23T07:56:20.395Z,17.40
2019-05-23T07:58:47.986Z,17.40
2019-05-23T08:01:18.749Z,17.40
2019-05-23T08:03:45.790Z,17.50
2019-05-23T08:06:13.100Z,17.50
2019-05-23T08:08:40.862Z,17.50
2019-05-23T08:13:54.330Z,17.10
2019-05-23T08:16:21.754Z,17.60
2019-05-23T08:19:08.699Z,17.70
2019-05-23T08:21:42.670Z,17.90
2019-05-23T08:24:11.898Z,17.80
2019-05-23T08:26:40.666Z,17.80
2019-05-23T08:29:26.391Z,17.90
2019-05-23T08:31:37.342Z,17.90
2019-05-23T08:34:05.615Z,18.00
2019-05-23T08:36:52.698Z,18.00
2019-05-23T08:39:21.685Z,18.20
2019-05-23T08:41:49.522Z,18.10
2019-05-23T08:44:17.343Z,18.10
2019-05-23T08:46:45.700Z,17.60
2019-05-23T08:49:32.603Z,18.20
2019-05-23T08:52:19.390Z,18.10
2019-05-23T08:54:47.066Z,18.10
2019-05-23T08:57:14.508Z,18.30
2019-05-23T08:59:41.829Z,18.40
2019-05-23T09:02:11.271Z,18.50
2019-05-23T09:04:38.172Z,18.50
2019-05-23T09:07:06.698Z,18.50
2019-05-23T09:09:34.824Z,18.50
2019-05-23T09:12:02.954Z,18.60
2019-05-23T09:14:30.989Z,18.60
2019-05-23T09:17:18.526Z,18.60
2019-05-23T09:19:46.022Z,18.90
2019-05-23T09:22:18.064Z,18.30
2019-05-23T09:24:45.820Z,17.30
2019-05-23T09:27:13.246Z,17.70
2019-05-23T09:29:41.454Z,18.90
2019-05-23T09:32:09.361Z,18.90
2019-05-23T09:34:36.382Z,19.10
2019-05-23T09:37:04.453Z,19.10
2019-05-23T09:39:31.838Z,19.20
2019-05-23T09:41:58.886Z,19.30
2019-05-23T09:44:26.390Z,19.40
2019-05-23T09:46:53.420Z,19.40
2019-05-23T09:49:20.634Z,19.50
2019-05-23T09:54:35.298Z,19.10
2019-05-23T09:57:02.801Z,20.10
2019-05-23T09:59:30.026Z,19.60
2019-05-23T10:01:59.459Z,19.50
2019-05-23T10:04:26.441Z,19.70
2019-05-23T10:06:54.354Z,19.80
2019-05-23T10:09:21.328Z,19.80
2019-05-23T10:11:48.521Z,19.90
2019-05-23T10:14:20.448Z,19.90
2019-05-23T10:16:47.925Z,20.00
2019-05-23T10:19:15.036Z,20.10
2019-05-23T10:21:42.106Z,20.10
2019-05-23T10:24:09.654Z,20.20
2019-05-23T10:26:36.852Z,20.20
2019-05-23T10:29:03.865Z,20.20
2019-05-23T10:31:30.984Z,20.30
2019-05-23T10:33:58.424Z,20.40
2019-05-23T10:36:45.511Z,20.50
2019-05-23T10:39:12.830Z,20.40
2019-05-23T10:41:39.979Z,20.50
2019-05-23T10:44:07.429Z,20.70
2019-05-23T10:46:54.754Z,20.70
2019-05-23T10:49:22.182Z,20.30
2019-05-23T10:52:10.527Z,20.70
2019-05-23T10:54:38.402Z,20.30
2019-05-23T10:57:05.563Z,20.90
2019-05-23T10:59:32.578Z,20.90
2019-05-23T11:02:19.833Z,20.90
2019-05-23T11:04:47.462Z,20.50
2019-05-23T11:07:16.357Z,21.10
2019-05-23T11:09:43.738Z,20.20
2019-05-23T11:12:11.712Z,21.00
2019-05-23T11:14:58.899Z,21.30
2019-05-23T11:17:47.722Z,21.50
2019-05-23T11:20:17.449Z,21.50
2019-05-23T11:22:45.052Z,21.60
2019-05-23T11:25:12.740Z,21.00
2019-05-23T11:27:40.505Z,21.60
2019-05-23T11:30:07.613Z,22.60
2019-05-23T11:32:54.447Z,21.60
2019-05-23T11:38:08.838Z,21.40
2019-05-23T11:40:55.606Z,20.10
2019-05-23T11:43:23.183Z,21.90
2019-05-23T11:46:21.089Z,21.70
2019-05-23T11:48:48.738Z,21.70
2019-05-23T11:51:16.474Z,21.70
2019-05-23T11:54:08.445Z,21.70
2019-05-23T11:59:21.435Z,21.60
2019-05-23T12:02:08.437Z,21.60
2019-05-23T12:04:40.979Z,21.10
2019-05-23T12:07:16.374Z,22.30
2019-05-23T12:10:03.271Z,21.80
2019-05-23T12:12:30.743Z,21.60
2019-05-23T12:14:58.662Z,22.10
2019-05-23T12:17:31.145Z,21.10
2019-05-23T12:19:58.572Z,20.90
2019-05-23T12:22:29.725Z,22.90
2019-05-23T12:24:57.694Z,22.40
2019-05-23T12:27:25.247Z,22.00
2019-05-23T12:29:52.363Z,22.30
2019-05-23T12:32:39.184Z,22.30
2019-05-23T12:35:11.166Z,22.40
2019-05-23T12:37:35.571Z,21.60
2019-05-23T12:40:04.001Z,22.40
2019-05-23T12:42:31.016Z,22.60
2019-05-23T12:44:58.006Z,22.60
2019-05-23T12:47:56.659Z,22.60
2019-05-23T12:50:45.548Z,22.70
2019-05-23T12:53:16.001Z,22.60
2019-05-23T12:55:43.384Z,22.70
2019-05-23T12:58:10.724Z,22.60
2019-05-23T13:00:51.868Z,22.60
2019-05-23T13:03:38.897Z,22.60
2019-05-23T13:06:07.057Z,23.00
2019-05-23T13:08:34.410Z,22.60
2019-05-23T13:11:01.549Z,22.70
2019-05-23T13:13:29.217Z,22.90
2019-05-23T13:15:56.391Z,23.00
2019-05-23T13:18:43.800Z,23.20
2019-05-23T13:21:11.480Z,23.10
2019-05-23T13:23:38.527Z,23.20
2019-05-23T13:26:31.875Z,23.20
2019-05-23T13:28:59.256Z,23.40
2019-05-23T13:31:46.338Z,23.40
2019-05-23T13:34:13.693Z,23.20
2019-05-23T13:37:01.008Z,23.50
2019-05-23T13:39:29.316Z,23.30
2019-05-23T13:41:56.907Z,23.50
2019-05-23T13:44:34.278Z,23.50
2019-05-23T13:46:53.490Z,23.60
2019-05-23T13:49:40.475Z,23.70
2019-05-23T13:52:07.639Z,23.90
2019-05-23T13:54:54.262Z,23.90
2019-05-23T13:57:21.500Z,24.10
2019-05-23T13:59:48.937Z,23.80
2019-05-23T14:02:15.971Z,23.80
2019-05-23T14:04:45.175Z,23.80
2019-05-23T14:07:14.267Z,23.80
2019-05-23T14:09:41.703Z,23.80
2019-05-23T14:12:28.781Z,23.90
2019-05-23T14:14:56.652Z,23.30
2019-05-23T14:17:32.824Z,24.10
2019-05-23T14:20:00.236Z,23.80
2019-05-23T14:22:52.756Z,23.90
2019-05-23T14:25:20.118Z,23.70
2019-05-23T14:28:08.510Z,23.90
2019-05-23T14:30:55.124Z,23.60
2019-05-23T14:33:43.405Z,23.80
2019-05-23T14:36:23.508Z,23.70
2019-05-23T14:38:51.459Z,23.70
2019-05-23T14:41:18.459Z,23.70
2019-05-23T14:44:05.240Z,23.70
2019-05-23T14:46:38.184Z,23.40
2019-05-23T14:49:21.691Z,23.70
2019-05-23T14:52:01.631Z,23.60
2019-05-23T14:54:36.825Z,23.50
2019-05-23T14:57:05.912Z,23.40
2019-05-23T14:59:33.261Z,23.40
2019-05-23T15:02:00.384Z,23.30
2019-05-23T15:04:27.887Z,23.30
2019-05-23T15:06:54.961Z,23.30
2019-05-23T15:09:22.886Z,23.30
2019-05-23T15:11:50.561Z,23.30
2019-05-23T15:14:17.597Z,23.20
2019-05-23T15:16:44.577Z,23.30
2019-05-23T15:19:13.108Z,23.30
2019-05-23T15:21:40.176Z,23.00
2019-05-23T15:24:07.167Z,23.20
2019-05-23T15:26:54.435Z,23.20
2019-05-23T15:29:22.291Z,23.10
2019-05-23T15:32:02.306Z,24.50
2019-05-23T15:34:26.219Z,23.40
2019-05-23T15:36:53.762Z,23.20
2019-05-23T15:39:21.488Z,23.20
2019-05-23T15:41:48.652Z,23.10
2019-05-23T15:44:25.801Z,23.10
2019-05-23T15:46:44.872Z,22.90
2019-05-23T15:49:14.070Z,22.90
2019-05-23T15:51:52.433Z,23.00
2019-05-23T15:57:15.753Z,22.90
2019-05-23T15:59:55.168Z,23.00
2019-05-23T16:02:25.494Z,23.00
2019-05-23T16:04:54.630Z,22.90
2019-05-23T16:07:23.102Z,22.90
2019-05-23T16:09:50.340Z,22.80
2019-05-23T16:12:17.570Z,22.80
2019-05-23T16:14:45.102Z,22.80
2019-05-23T16:17:32.410Z,22.80
2019-05-23T16:19:59.359Z,22.80
2019-05-23T16:22:46.019Z,22.80
2019-05-23T16:25:13.535Z,22.70
2019-05-23T16:27:40.896Z,22.70
2019-05-23T16:30:08.394Z,22.70
2019-05-23T16:32:35.508Z,22.60
2019-05-23T16:35:22.388Z,22.70
2019-05-23T16:37:49.781Z,22.90
2019-05-23T16:40:17.381Z,22.70
2019-05-23T16:43:04.740Z,22.70
2019-05-23T16:45:32.018Z,22.80
2019-05-23T16:48:18.967Z,22.60
2019-05-23T16:51:06.332Z,22.70
2019-05-23T16:53:35.949Z,22.70
2019-05-23T16:56:08.806Z,22.20
2019-05-23T16:58:48.859Z,22.60
2019-05-23T17:01:26.134Z,22.50
2019-05-23T17:04:12.693Z,22.50
2019-05-23T17:06:55.061Z,22.40
2019-05-23T17:09:40.040Z,22.40
2019-05-23T17:12:20.575Z,22.40
2019-05-23T17:14:58.433Z,22.40
2019-05-23T17:18:00.615Z,22.30
2019-05-23T17:20:23.429Z,22.30
2019-05-23T17:23:03.274Z,22.30
2019-05-23T17:25:43.353Z,22.20
2019-05-23T17:28:14.982Z,22.20
2019-05-23T17:30:50.564Z,22.20
2019-05-23T17:33:18.200Z,22.20
2019-05-23T17:35:45.134Z,22.10
2019-05-23T17:38:12.662Z,22.10
2019-05-23T17:40:40.480Z,22.10
2019-05-23T17:43:27.229Z,22.10
2019-05-23T17:45:55.112Z,22.00
2019-05-23T17:48:22.014Z,22.10
2019-05-23T17:50:59.087Z,22.10
2019-05-23T17:53:26.551Z,21.70
2019-05-23T17:55:56.207Z,22.10
2019-05-23T17:58:25.267Z,22.00
2019-05-23T18:00:54.989Z,22.00
2019-05-23T18:03:22.604Z,22.10
2019-05-23T18:05:49.900Z,22.00
2019-05-23T18:08:18.374Z,21.90
2019-05-23T18:10:46.221Z,22.00
2019-05-23T18:13:15.054Z,22.00
2019-05-23T18:15:42.579Z,21.90
2019-05-23T18:18:09.676Z,21.90
2019-05-23T18:20:37.230Z,21.90
2019-05-23T18:23:05.280Z,21.90
2019-05-23T18:25:32.468Z,21.90
2019-05-23T18:27:59.455Z,21.90
2019-05-23T18:30:32.433Z,21.90
2019-05-23T18:33:00.151Z,21.90
2019-05-23T18:35:27.472Z,21.80
2019-05-23T18:37:54.751Z,21.80
2019-05-23T18:40:22.608Z,21.80
2019-05-23T18:42:49.833Z,21.70
2019-05-23T18:45:18.372Z,21.70
2019-05-23T18:47:45.615Z,21.60
2019-05-23T18:50:15.006Z,21.60
2019-05-23T18:52:43.655Z,21.50
2019-05-23T18:55:30.633Z,21.50
2019-05-23T18:57:58.975Z,21.40
2019-05-23T19:01:24.099Z,21.40
2019-05-23T19:03:55.344Z,21.40
2019-05-23T19:06:23.024Z,21.30
2019-05-23T19:08:51.230Z,21.30
2019-05-23T19:11:59.313Z,21.30
2019-05-23T19:14:26.822Z,21.40
2019-05-23T19:16:54.591Z,21.20
2019-05-23T19:19:22.029Z,21.10
2019-05-23T19:21:52.122Z,21.10
2019-05-23T19:24:20.257Z,21.10
2019-05-23T19:26:47.874Z,21.10
2019-05-23T19:29:16.955Z,21.00
2019-05-23T19:31:44.014Z,21.00
2019-05-23T19:34:11.124Z,20.90
2019-05-23T19:36:38.623Z,20.90
2019-05-23T19:39:49.926Z,20.80
2019-05-23T19:42:17.938Z,20.40
2019-05-23T19:44:44.939Z,20.80
2019-05-23T19:47:12.343Z,20.70
2019-05-23T19:49:39.820Z,20.70
2019-05-23T19:52:07.024Z,20.60
2019-05-23T19:54:34.079Z,20.60
2019-05-23T19:57:01.044Z,20.60
2019-05-23T19:59:28.439Z,20.50
2019-05-23T20:02:13.764Z,20.50
2019-05-23T20:04:44.436Z,20.40
2019-05-23T20:07:15.310Z,20.40
2019-05-23T20:09:41.471Z,20.30
2019-05-23T20:12:28.272Z,20.20
2019-05-23T20:14:55.176Z,20.30
2019-05-23T20:17:22.132Z,20.20
2019-05-23T20:19:50.578Z,20.20
2019-05-23T20:22:18.217Z,20.10
2019-05-23T20:24:45.104Z,20.10
2019-05-23T20:27:12.239Z,20.00
2019-05-23T20:29:39.134Z,20.00
2019-05-23T20:32:07.416Z,19.90
2019-05-23T20:34:35.410Z,19.90
2019-05-23T20:37:02.330Z,19.80
2019-05-23T20:39:29.724Z,19.80
2019-05-23T20:42:10.428Z,19.70
2019-05-23T20:44:25.524Z,19.60
2019-05-23T20:46:52.593Z,19.70
2019-05-23T20:49:19.548Z,19.60
2019-05-23T20:52:06.250Z,19.50
2019-05-23T20:54:33.870Z,19.80
2019-05-23T20:57:01.765Z,19.50
2019-05-23T20:59:29.399Z,19.40
2019-05-23T21:01:56.457Z,19.40
2019-05-23T21:04:23.476Z,19.40
2019-05-23T21:06:51.506Z,19.40
2019-05-23T21:09:19.369Z,19.30
2019-05-23T21:11:46.465Z,19.30
2019-05-23T21:14:13.544Z,19.20
2019-05-23T21:16:40.552Z,19.10
2019-05-23T21:19:07.445Z,19.10
2019-05-23T21:21:35.742Z,19.00
2019-05-23T21:24:02.917Z,19.00
2019-05-23T21:26:30.059Z,19.00
2019-05-23T21:29:16.691Z,18.90
2019-05-23T21:31:45.894Z,18.90
2019-05-23T21:34:13.536Z,18.80
2019-05-23T21:36:40.427Z,18.80
2019-05-23T21:39:09.108Z,18.80
2019-05-23T21:41:36.588Z,18.80
2019-05-23T21:44:04.024Z,18.80
2019-05-23T21:46:31.041Z,18.80
2019-05-23T21:48:58.034Z,18.70
2019-05-23T21:51:25.439Z,18.70
2019-05-23T21:53:52.935Z,18.70
2019-05-23T21:56:19.830Z,18.60
2019-05-23T21:59:06.407Z,18.60
2019-05-23T22:01:42.045Z,18.50
2019-05-23T22:04:40.919Z,18.60
2019-05-23T22:07:08.833Z,18.60
2019-05-23T22:09:37.195Z,18.50
2019-05-23T22:12:08.647Z,18.50
2019-05-23T22:14:36.169Z,18.50
2019-05-23T22:17:03.389Z,18.40
2019-05-23T22:19:32.352Z,18.40
2019-05-23T22:21:59.787Z,18.40
2019-05-23T22:24:26.816Z,18.30
2019-05-23T22:26:53.756Z,18.30
2019-05-23T22:29:20.912Z,18.30
2019-05-23T22:31:47.802Z,18.20
2019-05-23T22:34:25.883Z,18.30
2019-05-23T22:36:53.431Z,18.30
2019-05-23T22:39:20.430Z,18.20
2019-05-23T22:41:47.461Z,18.20
2019-05-23T22:44:14.450Z,18.20
2019-05-23T22:46:42.044Z,18.10
2019-05-23T22:49:09.518Z,18.10
2019-05-23T22:51:36.608Z,18.10
2019-05-23T22:54:03.917Z,18.00
2019-05-23T22:56:30.870Z,18.00
2019-05-23T22:58:58.575Z,18.00
2019-05-23T23:01:27.708Z,17.90
2019-05-23T23:03:55.872Z,17.90
2019-05-23T23:06:23.267Z,17.90
2019-05-23T23:08:50.151Z,17.90
2019-05-23T23:11:17.163Z,17.90
2019-05-23T23:13:44.602Z,18.00
2019-05-23T23:16:12.457Z,18.00
2019-05-23T23:18:39.572Z,18.00
2019-05-23T23:21:06.591Z,18.00
2019-05-23T23:23:34.023Z,18.00
2019-05-23T23:26:01.469Z,18.00
2019-05-23T23:28:28.454Z,18.00
2019-05-23T23:30:55.881Z,18.00
2019-05-23T23:33:22.759Z,17.90
2019-05-23T23:36:09.284Z,17.90
2019-05-23T23:38:36.210Z,17.80
2019-05-23T23:41:03.498Z,17.80
2019-05-23T23:43:31.139Z,17.70
2019-05-23T23:46:16.484Z,17.70
2019-05-23T23:49:01.535Z,17.60
2019-05-23T23:51:48.419Z,17.50
2019-05-23T23:54:53.366Z,17.50
2019-05-23T23:57:39.703Z,17.50
